Time;durP1;ratioP1;P1;durP2;ratioP2;P2;SDS_P1;SDS_P2;PMS_P1;PMS_P2;Temp;Humidity;BMP_temperature;BMP_pressure;BME280_temperature;BME280_humidity;BME280_pressure;Samples;Min_cycle;Max_cycle;Signal;HPM_P1;HPM_P2
2021/10/13 03:20:29;;;;;;;4.60;3.40;;;;;;;8.21;78.25;96145.13;6366184;22;20030;-62
2021/10/13 03:22:59;;;;;;;3.28;3.00;;;;;;;8.19;78.19;96147.03;6367622;22;20350;-62
2021/10/13 03:25:33;;;;;;;3.85;3.45;;;;;;;8.17;77.95;96144.53;6367416;22;20124;-61
2021/10/13 03:28:01;;;;;;;5.38;3.60;;;;;;;8.16;77.83;96142.84;6367374;22;20006;-62
2021/10/13 03:30:28;;;;;;;5.15;3.22;;;;;;;8.14;77.95;96139.50;6367323;22;20043;-62
2021/10/13 03:32:53;;;;;;;7.07;3.20;;;;;;;8.08;78.51;96145.22;6367688;22;20010;-62
2021/10/13 03:35:27;;;;;;;4.25;3.53;;;;;;;8.03;78.53;96138.53;6367533;22;20327;-62
2021/10/13 03:37:53;;;;;;;4.95;3.45;;;;;;;8.00;78.85;96144.00;6367093;22;20010;-62
2021/10/13 03:40:20;;;;;;;3.70;3.35;;;;;;;8.00;78.96;96154.50;6367540;22;20503;-62
2021/10/13 03:42:46;;;;;;;7.65;4.18;;;;;;;7.96;79.57;96150.44;6366795;22;20078;-62
2021/10/13 03:45:16;;;;;;;3.58;3.25;;;;;;;7.92;80.04;96154.22;6367450;22;20030;-62
2021/10/13 03:47:41;;;;;;;6.80;3.65;;;;;;;7.88;80.11;96151.00;6367379;22;20460;-62
2021/10/13 03:50:09;;;;;;;4.40;3.50;;;;;;;7.84;81.00;96156.56;6367057;22;20003;-61
2021/10/13 03:52:35;;;;;;;5.25;3.60;;;;;;;7.86;80.74;96155.50;6367412;22;20341;-62
2021/10/13 03:55:00;;;;;;;3.80;3.50;;;;;;;7.80;81.89;96163.00;6366411;22;20006;-61
2021/10/13 03:57:26;;;;;;;6.22;4.13;;;;;;;7.79;82.15;96161.31;6366872;22;20479;-61
2021/10/13 03:59:51;;;;;;;4.57;3.60;;;;;;;7.79;82.11;96163.94;6366878;22;20002;-62
2021/10/13 04:02:16;;;;;;;6.00;3.60;;;;;;;7.78;82.49;96163.13;6366688;22;20007;-62
2021/10/13 04:04:42;;;;;;;5.18;4.07;;;;;;;7.80;82.77;96171.72;6366280;22;20010;-62
2021/10/13 04:07:07;;;;;;;4.82;3.97;;;;;;;7.82;83.38;96168.97;6366122;22;20334;-62
2021/10/13 04:09:32;;;;;;;4.40;4.00;;;;;;;7.86;83.26;96162.56;6366652;22;20073;-62
2021/10/13 04:11:58;;;;;;;5.85;3.92;;;;;;;7.85;83.21;96166.94;6364597;22;20026;-60
2021/10/13 04:14:23;;;;;;;5.47;3.85;;;;;;;7.83;83.65;96181.13;6363787;22;20006;-59
2021/10/13 04:16:49;;;;;;;7.47;3.80;;;;;;;7.82;83.83;96176.81;6364162;22;20705;-60
2021/10/13 04:19:14;;;;;;;5.88;4.35;;;;;;;7.79;83.98;96171.81;6365291;22;20044;-60
2021/10/13 04:21:39;;;;;;;7.15;4.55;;;;;;;7.76;83.91;96177.28;6366797;22;20006;-60
2021/10/13 04:24:05;;;;;;;5.07;3.60;;;;;;;7.76;83.89;96183.38;6366462;22;19999;-60
2021/10/13 04:26:30;;;;;;;4.05;3.70;;;;;;;7.77;84.50;96184.19;6366533;22;20060;-60
2021/10/13 04:28:56;;;;;;;5.68;3.80;;;;;;;7.78;83.84;96188.47;6367000;22;20002;-60
2021/10/13 04:31:21;;;;;;;4.20;3.75;;;;;;;7.77;84.00;96185.03;6366080;22;20017;-60
2021/10/13 04:33:46;;;;;;;7.68;5.95;;;;;;;7.78;84.23;96185.88;6365869;22;20013;-60
2021/10/13 04:36:12;;;;;;;6.85;6.25;;;;;;;7.73;84.58;96188.81;6366450;22;20434;-60
2021/10/13 04:38:37;;;;;;;5.85;5.35;;;;;;;7.71;84.95;96188.94;6366914;22;20527;-60
2021/10/13 04:41:02;;;;;;;5.05;4.57;;;;;;;7.67;84.85;96179.63;6366569;22;20010;-60
2021/10/13 04:43:28;;;;;;;8.63;4.45;;;;;;;7.62;85.15;96178.28;6366638;22;20457;-60
2021/10/13 04:45:53;;;;;;;5.05;4.00;;;;;;;7.49;85.73;96178.34;6366928;22;20010;-60
2021/10/13 04:48:18;;;;;;;4.47;4.07;;;;;;;7.39;86.10;96171.13;6366234;22;20007;-60
2021/10/13 04:50:44;;;;;;;4.47;4.03;;;;;;;7.33;87.05;96171.59;6365961;22;20003;-60
2021/10/13 04:53:09;;;;;;;6.72;4.57;;;;;;;7.31;86.79;96183.97;6365319;22;20081;-60
2021/10/13 04:55:35;;;;;;;7.85;4.20;;;;;;;7.27;87.41;96179.88;6365970;22;20006;-60
2021/10/13 04:58:00;;;;;;;6.22;5.28;;;;;;;7.23;87.24;96181.88;6364754;22;20214;-60
2021/10/13 05:00:25;;;;;;;5.50;5.00;;;;;;;7.19;87.56;96183.03;6366120;22;20010;-60
2021/10/13 05:02:51;;;;;;;5.90;4.88;;;;;;;7.13;87.96;96181.69;6363622;22;20006;-60
2021/10/13 05:05:16;;;;;;;4.68;4.03;;;;;;;7.05;87.86;96183.16;6364126;22;20349;-59
2021/10/13 05:07:42;;;;;;;5.07;4.68;;;;;;;6.99;88.20;96189.69;6364929;22;20026;-60
2021/10/13 05:10:07;;;;;;;6.85;4.20;;;;;;;6.90;89.19;96192.94;6364866;22;20087;-60
2021/10/13 05:12:33;;;;;;;4.60;4.05;;;;;;;6.83;89.08;96190.75;6365747;22;20006;-59
2021/10/13 05:14:58;;;;;;;4.95;4.53;;;;;;;6.83;88.46;96197.75;6366719;22;20007;-59
2021/10/13 05:17:23;;;;;;;4.68;4.25;;;;;;;6.81;88.49;96203.13;6362715;22;20315;-60
2021/10/13 05:19:49;;;;;;;5.72;4.40;;;;;;;6.77;88.58;96196.44;6365454;22;20018;-60
2021/10/13 05:22:14;;;;;;;6.68;4.68;;;;;;;6.71;89.19;96191.59;6365970;22;20026;-59
2021/10/13 05:24:39;;;;;;;4.75;4.32;;;;;;;6.64;89.43;96195.59;6366080;22;20048;-60
2021/10/13 05:27:05;;;;;;;5.03;4.63;;;;;;;6.59;89.88;96194.13;6365943;22;20030;-60
2021/10/13 05:29:30;;;;;;;4.88;4.38;;;;;;;6.56;89.46;96199.56;6366330;22;20006;-60
2021/10/13 05:31:56;;;;;;;6.47;4.20;;;;;;;6.51;89.53;96201.63;6366437;22;20002;-60
2021/10/13 05:34:21;;;;;;;5.53;4.20;;;;;;;6.49;89.19;96198.28;6366024;22;20016;-60
2021/10/13 05:36:46;;;;;;;4.57;4.28;;;;;;;6.40;89.33;96199.75;6366079;22;20003;-60
2021/10/13 05:39:12;;;;;;;4.32;3.95;;;;;;;6.32;89.86;96202.06;6366367;22;20037;-60
2021/10/13 05:41:37;;;;;;;6.50;4.60;;;;;;;6.24;90.95;96210.41;6365680;22;20026;-60
2021/10/13 05:44:03;;;;;;;6.03;4.60;;;;;;;6.18;91.07;96216.06;6366189;22;20009;-60
2021/10/13 05:46:28;;;;;;;6.28;4.97;;;;;;;6.17;91.54;96219.63;6366470;22;20083;-60
2021/10/13 05:48:53;;;;;;;8.75;4.32;;;;;;;6.15;90.82;96218.88;6365807;22;19999;-60
2021/10/13 05:51:19;;;;;;;5.85;5.00;;;;;;;6.10;90.87;96226.19;6365849;22;20010;-60
2021/10/13 05:53:44;;;;;;;5.43;4.75;;;;;;;6.06;91.21;96225.56;6365897;22;19998;-59
2021/10/13 05:56:10;;;;;;;5.75;4.60;;;;;;;6.06;90.66;96230.78;6365939;22;20009;-60
2021/10/13 05:58:37;;;;;;;5.05;4.55;;;;;;;6.04;90.82;96229.19;6365997;22;20115;-60
2021/10/13 06:01:03;;;;;;;4.90;4.53;;;;;;;6.04;91.00;96231.81;6366061;22;20034;-60
2021/10/13 06:03:28;;;;;;;5.53;4.15;;;;;;;5.91;91.26;96229.97;6365658;22;20099;-60
2021/10/13 06:05:54;;;;;;;4.60;4.20;;;;;;;5.83;91.75;96234.84;6364414;22;20006;-60
2021/10/13 06:08:20;;;;;;;5.85;5.30;;;;;;;5.86;91.19;96234.66;6365691;22;20021;-60
2021/10/13 06:10:45;;;;;;;5.60;5.10;;;;;;;5.88;90.87;96233.63;6365642;22;20051;-60
2021/10/13 06:13:11;;;;;;;8.35;4.97;;;;;;;5.86;91.46;96232.88;6365825;22;20006;-60
2021/10/13 06:15:37;;;;;;;6.57;4.63;;;;;;;5.82;91.71;96233.16;6365666;22;20434;-60
2021/10/13 06:18:09;;;;;;;6.75;5.35;;;;;;;5.81;91.69;96234.09;6365332;22;20059;-60
2021/10/13 06:20:35;;;;;;;11.32;4.95;;;;;;;5.74;92.82;96233.66;6365705;22;20347;-60
2021/10/13 06:23:01;;;;;;;12.95;5.22;;;;;;;5.74;93.10;96233.66;6365555;22;20008;-60
2021/10/13 06:25:27;;;;;;;5.32;4.82;;;;;;;5.74;92.41;96233.66;6365364;22;20002;-60
2021/10/13 06:27:52;;;;;;;5.85;4.80;;;;;;;5.76;92.21;96242.25;6365829;22;20010;-60
2021/10/13 06:30:18;;;;;;;11.27;5.30;;;;;;;5.77;92.48;96232.63;6365562;22;20044;-60
2021/10/13 06:32:44;;;;;;;9.35;5.10;;;;;;;5.77;91.63;96237.84;6365814;22;20002;-60
2021/10/13 06:35:10;;;;;;;5.45;4.95;;;;;;;5.71;92.14;96245.16;6365706;22;20006;-60
2021/10/13 06:37:35;;;;;;;6.60;4.78;;;;;;;5.74;91.69;96244.97;6364811;22;20338;-60
2021/10/13 06:40:00;;;;;;;8.82;6.00;;;;;;;5.71;91.71;96249.53;6365732;22;20006;-60
2021/10/13 06:42:26;;;;;;;10.63;6.22;;;;;;;5.67;92.31;96248.91;6365055;22;20002;-60
2021/10/13 06:44:51;;;;;;;8.77;6.53;;;;;;;5.64;91.89;96251.72;6364506;22;20006;-60
2021/10/13 06:47:16;;;;;;;7.00;6.30;;;;;;;5.63;92.11;96260.47;6365421;22;20002;-62
2021/10/13 06:49:42;;;;;;;7.32;5.95;;;;;;;5.65;92.32;96266.47;6364171;22;20011;-59
2021/10/13 06:52:07;;;;;;;9.63;6.30;;;;;;;5.66;92.84;96268.13;6364631;22;19998;-60
2021/10/13 06:54:33;;;;;;;10.85;6.20;;;;;;;5.67;92.56;96271.56;6363943;22;19998;-60
2021/10/13 06:56:58;;;;;;;11.18;6.72;;;;;;;5.70;92.79;96276.59;6365745;22;20006;-60
2021/10/13 06:59:23;;;;;;;13.02;9.00;;;;;;;5.74;92.77;96265.88;6364369;22;19998;-59
2021/10/13 07:01:49;;;;;;;12.98;7.70;;;;;;;5.76;92.83;96263.16;6365214;22;20011;-60
2021/10/13 07:04:14;;;;;;;8.23;6.53;;;;;;;5.83;92.66;96268.81;6366395;22;20010;-60
2021/10/13 07:06:40;;;;;;;12.40;6.18;;;;;;;5.86;92.42;96272.09;6367361;22;20509;-60
2021/10/13 07:09:05;;;;;;;53.38;10.57;;;;;;;5.88;92.84;96270.19;6367462;22;20334;-60
2021/10/13 07:11:32;;;;;;;9.57;7.38;;;;;;;5.98;91.29;96273.06;6365940;22;20010;-60
2021/10/13 07:13:57;;;;;;;7.43;6.72;;;;;;;5.97;90.92;96266.16;6367708;22;20108;-60
2021/10/13 07:16:23;;;;;;;7.57;5.28;;;;;;;6.04;90.36;96274.47;6367465;22;20041;-60
2021/10/13 07:18:48;;;;;;;8.05;5.30;;;;;;;6.05;90.71;96272.69;6367010;22;20015;-60
2021/10/13 07:21:13;;;;;;;7.22;4.68;;;;;;;6.04;90.41;96266.63;6367505;22;19999;-60
2021/10/13 07:23:39;;;;;;;5.75;4.82;;;;;;;6.10;90.41;96268.84;6367385;22;20387;-60
2021/10/13 07:26:04;;;;;;;8.13;4.88;;;;;;;6.16;90.31;96270.22;6367700;22;20006;-60
2021/10/13 07:28:30;;;;;;;71.70;9.63;;;;;;;6.13;90.59;96273.03;6366752;22;20082;-60
2021/10/13 07:30:55;;;;;;;197.70;19.55;;;;;;;6.17;90.42;96277.13;6365888;22;20005;-60
2021/10/13 07:33:21;;;;;;;116.88;14.45;;;;;;;6.14;90.82;96272.09;6366946;22;19998;-60
2021/10/13 07:35:47;;;;;;;35.30;6.68;;;;;;;6.19;90.68;96277.00;6367599;22;20009;-60
2021/10/13 07:38:13;;;;;;;9.50;5.20;;;;;;;6.21;90.36;96275.16;6367344;22;20303;-60
2021/10/13 07:40:39;;;;;;;6.15;4.53;;;;;;;6.25;89.77;96279.25;6367576;22;20025;-60
2021/10/13 07:43:04;;;;;;;42.92;5.95;;;;;;;6.26;89.89;96281.75;6366708;22;20026;-60
2021/10/13 07:45:30;;;;;;;5.57;5.05;;;;;;;6.22;90.76;96285.50;6367384;22;20052;-60
2021/10/13 07:47:56;;;;;;;5.50;4.70;;;;;;;6.29;90.44;96284.16;6366723;22;20782;-60
2021/10/13 07:50:21;;;;;;;7.28;4.50;;;;;;;6.44;90.08;96290.19;6366898;22;20011;-59
2021/10/13 07:52:47;;;;;;;5.57;5.07;;;;;;;6.59;89.56;96293.53;6367339;22;20485;-60
2021/10/13 07:55:13;;;;;;;8.70;4.75;;;;;;;6.69;88.48;96292.91;6366955;22;20051;-59
2021/10/13 07:57:38;;;;;;;7.30;4.53;;;;;;;6.71;87.47;96283.19;6367366;22;20005;-60
2021/10/13 08:00:05;;;;;;;5.85;4.72;;;;;;;6.75;87.45;96287.28;6366938;22;20030;-60
2021/10/13 08:02:30;;;;;;;5.38;4.88;;;;;;;6.74;86.92;96296.06;6367134;22;20003;-60
2021/10/13 08:04:56;;;;;;;5.30;4.80;;;;;;;6.80;87.68;96290.44;6366769;22;20010;-60
2021/10/13 08:07:21;;;;;;;10.00;4.63;;;;;;;6.86;87.34;96297.03;6367290;22;20002;-60
2021/10/13 08:09:47;;;;;;;4.93;4.38;;;;;;;6.86;87.17;96300.47;6366631;22;20063;-60
2021/10/13 08:12:12;;;;;;;7.15;4.85;;;;;;;6.92;87.42;96295.75;6366702;22;20013;-59
2021/10/13 08:14:37;;;;;;;101.15;12.48;;;;;;;7.00;87.49;96298.72;6366384;22;20051;-60
2021/10/13 08:17:03;;;;;;;16.05;5.60;;;;;;;7.06;86.96;96295.66;6366577;22;20327;-59
2021/10/13 08:19:29;;;;;;;8.88;4.75;;;;;;;7.15;86.38;96288.97;6366778;22;20384;-60
2021/10/13 08:21:54;;;;;;;6.25;4.03;;;;;;;7.23;85.41;96288.44;6366594;22;20009;-60
2021/10/13 08:24:20;;;;;;;4.22;3.92;;;;;;;7.30;84.76;96287.06;6366416;22;20055;-60
2021/10/13 08:26:46;;;;;;;4.45;3.95;;;;;;;7.39;84.68;96286.41;6367422;22;20002;-60
2021/10/13 08:29:11;;;;;;;4.60;4.20;;;;;;;7.51;83.73;96289.13;6366868;22;20450;-60
2021/10/13 08:31:37;;;;;;;5.30;3.95;;;;;;;7.59;83.76;96287.63;6366533;22;20005;-60
2021/10/13 08:34:02;;;;;;;4.55;3.80;;;;;;;7.69;83.97;96284.34;6366866;22;20060;-60
2021/10/13 08:36:27;;;;;;;4.50;4.10;;;;;;;7.76;83.51;96282.97;6366523;22;20392;-60
2021/10/13 08:38:53;;;;;;;4.60;4.20;;;;;;;7.86;83.04;96288.41;6366543;22;20069;-60
2021/10/13 08:41:18;;;;;;;5.05;4.18;;;;;;;7.95;82.59;96292.13;6366427;22;19998;-60
2021/10/13 08:43:45;;;;;;;5.10;4.45;;;;;;;8.05;82.78;96297.53;6366787;22;20005;-60
2021/10/13 08:46:11;;;;;;;4.60;4.20;;;;;;;8.10;81.67;96303.31;6366155;22;20358;-60
2021/10/13 08:48:37;;;;;;;4.90;4.50;;;;;;;8.06;80.94;96297.44;6366389;22;20002;-60
2021/10/13 08:51:02;;;;;;;6.60;4.75;;;;;;;8.04;80.69;96288.84;6366535;22;20009;-60
2021/10/13 08:53:28;;;;;;;8.38;4.22;;;;;;;8.11;81.62;96287.44;6366053;22;20438;-60
2021/10/13 08:55:54;;;;;;;4.93;4.45;;;;;;;8.22;81.21;96293.69;6366028;22;20045;-59
2021/10/13 08:58:28;;;;;;;4.28;3.97;;;;;;;8.28;80.24;96273.06;6365855;22;20007;-59
2021/10/13 09:01:02;;;;;;;4.32;3.92;;;;;;;8.39;80.04;96280.16;6366434;22;20002;-60
2021/10/13 09:03:30;;;;;;;3.88;3.58;;;;;;;8.42;79.85;96286.97;6366231;22;20333;-60
2021/10/13 09:05:57;;;;;;;5.05;4.10;;;;;;;8.50;80.72;96283.81;6366690;22;20384;-59
2021/10/13 09:08:23;;;;;;;6.28;4.22;;;;;;;8.57;80.37;96290.25;6366173;22;20396;-60
2021/10/13 09:10:53;;;;;;;7.15;4.57;;;;;;;8.62;79.31;96279.44;6366982;22;20034;-60
2021/10/13 09:13:19;;;;;;;4.80;4.18;;;;;;;8.69;79.70;96281.47;6366527;22;20491;-60
2021/10/13 09:15:49;;;;;;;4.57;4.18;;;;;;;8.73;79.42;96282.91;6366832;22;20002;-59
2021/10/13 09:18:19;;;;;;;4.30;3.88;;;;;;;8.83;79.05;96277.81;6366387;22;19998;-60
2021/10/13 09:20:51;;;;;;;5.05;4.45;;;;;;;8.91;78.14;96277.22;6366162;22;20073;-60
2021/10/13 09:23:29;;;;;;;4.60;3.85;;;;;;;8.93;78.66;96279.72;6366485;22;20003;-60
2021/10/13 09:26:10;;;;;;;6.63;4.55;;;;;;;9.01;78.33;96274.75;6366010;22;20003;-60
2021/10/13 09:28:37;;;;;;;6.10;4.10;;;;;;;9.17;78.56;96275.22;6366083;22;20013;-60
2021/10/13 09:31:17;;;;;;;4.70;4.30;;;;;;;9.26;78.09;96263.16;6366172;22;20063;-60
2021/10/13 09:33:58;;;;;;;4.65;4.15;;;;;;;9.35;77.63;96266.03;6365851;22;20453;-60
2021/10/13 09:36:35;;;;;;;7.30;4.47;;;;;;;9.46;77.85;96258.97;6365788;22;20037;-60
2021/10/13 09:39:21;;;;;;;6.63;3.72;;;;;;;9.63;77.09;96256.81;6365780;22;20006;-60
2021/10/13 09:42:05;;;;;;;5.63;3.67;;;;;;;9.87;76.18;96253.16;6365647;22;20042;-60
2021/10/13 09:44:34;;;;;;;6.30;3.90;;;;;;;10.06;74.78;96256.91;6365921;22;20083;-60
2021/10/13 09:47:03;;;;;;;7.35;3.70;;;;;;;10.17;74.06;96241.09;6366133;22;20002;-59
2021/10/13 09:49:36;;;;;;;5.78;3.63;;;;;;;10.26;74.25;96244.78;6365570;22;20002;-60
2021/10/13 09:52:19;;;;;;;5.47;3.60;;;;;;;10.39;73.56;96245.44;6366263;22;20011;-60
2021/10/13 09:54:55;;;;;;;6.53;3.83;;;;;;;10.40;72.92;96259.41;6365479;22;20180;-60
2021/10/13 09:57:22;;;;;;;3.17;2.92;;;;;;;10.50;72.57;96247.22;6366548;22;20319;-60
2021/10/13 10:00:08;;;;;;;3.40;3.10;;;;;;;10.63;72.31;96248.81;6365820;22;20025;-60
2021/10/13 10:02:48;;;;;;;3.25;2.95;;;;;;;10.73;72.13;96247.91;6365961;22;20065;-59
2021/10/13 10:05:17;;;;;;;4.05;3.00;;;;;;;10.89;72.66;96247.44;6365997;22;20011;-60
2021/10/13 10:07:58;;;;;;;5.45;2.70;;;;;;;11.07;70.40;96241.56;6365686;22;20442;-60
2021/10/13 10:10:23;;;;;;;3.65;3.00;;;;;;;11.18;69.54;96240.66;6365643;22;20003;-59
2021/10/13 10:13:15;;;;;;;3.38;3.03;;;;;;;11.32;68.33;96250.00;6366031;22;20001;-59
2021/10/13 10:15:48;;;;;;;4.20;3.20;;;;;;;11.46;68.44;96244.38;6359949;22;20015;-60
2021/10/13 10:18:26;;;;;;;3.03;2.80;;;;;;;11.52;68.09;96244.78;6365771;22;20380;-61
2021/10/13 10:20:53;;;;;;;2.60;2.40;;;;;;;11.58;67.76;96244.25;6366031;22;20052;-60
2021/10/13 10:23:33;;;;;;;3.35;2.75;;;;;;;11.66;67.02;96244.41;6365763;22;20010;-60
2021/10/13 10:26:24;;;;;;;4.30;2.70;;;;;;;11.75;67.25;96245.41;6365735;22;20059;-60
2021/10/13 10:28:52;;;;;;;3.25;2.95;;;;;;;11.81;67.20;96241.38;6365388;22;20006;-60
2021/10/13 10:31:27;;;;;;;4.00;3.60;;;;;;;11.86;66.59;96240.00;6365953;22;20002;-60
2021/10/13 10:34:07;;;;;;;6.32;3.00;;;;;;;11.86;67.30;96239.19;6366288;22;20626;-60
2021/10/13 10:36:36;;;;;;;2.75;2.55;;;;;;;11.95;65.90;96238.34;6365600;22;20059;-60
2021/10/13 10:39:01;;;;;;;4.32;2.60;;;;;;;12.09;64.94;96245.06;6367225;22;20026;-60
2021/10/13 10:41:54;;;;;;;2.95;2.65;;;;;;;12.19;64.93;96247.72;6367694;22;20319;-60
2021/10/13 10:44:41;;;;;;;2.30;2.10;;;;;;;12.30;64.43;96246.75;6359469;22;20041;-60
2021/10/13 10:47:09;;;;;;;4.72;2.97;;;;;;;12.45;64.16;96242.72;6367798;22;20017;-60
2021/10/13 10:49:55;;;;;;;3.30;2.55;;;;;;;12.53;62.06;96242.03;6367563;22;20006;-60
2021/10/13 10:52:27;;;;;;;2.60;2.40;;;;;;;12.80;62.96;96239.59;6346225;22;20021;-60
2021/10/13 10:55:05;;;;;;;6.00;2.53;;;;;;;12.96;62.60;96247.78;6367670;22;20012;-60
2021/10/13 10:57:47;;;;;;;3.08;2.45;;;;;;;13.11;60.49;96248.13;6368337;22;20008;-59
2021/10/13 11:00:22;;;;;;;3.08;2.78;;;;;;;13.25;61.32;96251.31;6367558;22;20002;-60
2021/10/13 11:02:50;;;;;;;4.70;2.53;;;;;;;13.47;60.47;96247.47;6367556;22;20105;-60
2021/10/13 11:05:21;;;;;;;2.38;2.20;;;;;;;13.64;60.80;96240.59;6367326;22;19998;-60
2021/10/13 11:07:48;;;;;;;2.85;2.53;;;;;;;13.68;60.29;96252.53;6367313;22;19994;-60
2021/10/13 11:10:14;;;;;;;4.72;2.38;;;;;;;14.06;58.99;96254.25;6367154;22;20450;-60
2021/10/13 11:12:50;;;;;;;3.05;2.47;;;;;;;14.02;58.88;96251.06;6367529;22;20461;-60
2021/10/13 11:15:18;;;;;;;3.85;2.42;;;;;;;13.75;60.53;96252.78;6367213;22;20010;-60
2021/10/13 11:17:43;;;;;;;36.33;5.65;;;;;;;13.56;59.43;96248.41;6367091;22;20439;-60
2021/10/13 11:20:11;;;;;;;32.65;5.15;;;;;;;13.29;61.13;96240.28;6366621;22;20014;-60
2021/10/13 11:22:37;;;;;;;3.33;2.50;;;;;;;12.98;59.26;96242.34;6367529;22;20002;-60
2021/10/13 11:25:12;;;;;;;2.60;2.50;;;;;;;12.80;62.19;96247.53;6367374;22;20036;-60
2021/10/13 11:27:38;;;;;;;6.95;3.28;;;;;;;12.86;61.73;96246.97;6367266;22;19998;-59
2021/10/13 11:30:18;;;;;;;3.00;2.63;;;;;;;12.95;61.32;96250.56;6367137;22;20031;-59
2021/10/13 11:32:43;;;;;;;3.60;2.35;;;;;;;12.71;62.49;96249.19;6367305;22;20009;-60
2021/10/13 11:35:09;;;;;;;3.00;2.10;;;;;;;12.68;61.93;96239.78;6367495;22;20371;-59
2021/10/13 11:37:35;;;;;;;3.40;3.10;;;;;;;12.65;62.13;96241.84;6366902;22;20010;-60
2021/10/13 11:40:01;;;;;;;4.75;4.28;;;;;;;12.50;62.71;96230.91;6367241;22;20010;-60
2021/10/13 11:42:31;;;;;;;2.92;2.50;;;;;;;12.58;62.49;96246.84;6367564;22;20089;-59
2021/10/13 11:44:56;;;;;;;2.88;1.98;;;;;;;12.44;62.92;96235.75;6366892;22;20402;-59
2021/10/13 11:47:27;;;;;;;2.90;2.03;;;;;;;12.40;63.80;96231.75;6367106;22;20006;-59
2021/10/13 11:49:59;;;;;;;2.67;2.40;;;;;;;12.64;62.95;96242.81;6366444;22;19998;-60
2021/10/13 11:52:25;;;;;;;6.43;2.15;;;;;;;12.64;63.63;96233.09;6367274;22;20006;-59
2021/10/13 11:55:06;;;;;;;1.75;1.70;;;;;;;12.65;62.91;96240.06;6366387;22;20396;-59
2021/10/13 11:57:32;;;;;;;1.95;1.85;;;;;;;12.71;63.03;96238.63;6367056;22;20086;-58
2021/10/13 12:00:16;;;;;;;1.70;1.60;;;;;;;12.82;61.91;96237.63;6366477;22;20005;-59
2021/10/13 12:03:13;;;;;;;4.07;1.80;;;;;;;12.81;61.08;96241.25;6366864;22;20385;-58
2021/10/13 12:05:51;;;;;;;1.90;1.80;;;;;;;12.50;61.79;96229.09;6366604;22;20033;-60
2021/10/13 12:08:18;;;;;;;5.57;1.75;;;;;;;12.60;61.12;96231.72;6366885;22;20006;-58
2021/10/13 12:11:02;;;;;;;2.00;1.80;;;;;;;12.71;61.08;96236.00;6364624;22;20004;-59
2021/10/13 12:13:29;;;;;;;1.83;1.42;;;;;;;12.73;61.42;96242.00;6364301;22;20002;-58
2021/10/13 12:16:01;;;;;;;1.67;1.60;;;;;;;12.86;60.77;96239.03;6366197;22;20007;-58
2021/10/13 12:18:31;;;;;;;98.45;9.05;;;;;;;13.04;61.42;96239.13;6366432;22;20002;-58
2021/10/13 12:21:02;;;;;;;1.55;1.50;;;;;;;13.26;59.27;96239.75;6364909;22;20010;-58
2021/10/13 12:23:30;;;;;;;4.90;1.90;;;;;;;13.19;59.66;96236.84;6356419;22;19998;-59
2021/10/13 12:25:55;;;;;;;1.80;1.67;;;;;;;13.01;60.50;96234.94;6365162;22;20002;-58
2021/10/13 12:28:25;;;;;;;1.38;1.27;;;;;;;13.08;60.28;96229.09;6365830;22;20040;-58
2021/10/13 12:31:04;;;;;;;1.50;1.40;;;;;;;13.20;59.48;96232.41;6364811;22;19998;-59
2021/10/13 12:33:50;;;;;;;1.67;1.63;;;;;;;13.27;59.34;96228.19;6366254;22;20014;-58
2021/10/13 12:36:17;;;;;;;3.75;1.52;;;;;;;13.43;58.85;96239.00;6365453;22;20013;-60
2021/10/13 12:38:47;;;;;;;2.40;1.88;;;;;;;13.49;57.57;96229.66;6365242;22;20033;-60
2021/10/13 12:41:13;;;;;;;1.63;1.55;;;;;;;13.59;57.66;96237.53;6365571;22;20003;-60
2021/10/13 12:43:46;;;;;;;1.45;1.45;;;;;;;13.69;57.32;96232.19;6364879;22;19999;-60
2021/10/13 12:46:17;;;;;;;4.97;1.55;;;;;;;13.76;57.72;96230.63;6365013;22;20011;-60
2021/10/13 12:48:43;;;;;;;2.00;1.80;;;;;;;13.80;57.82;96233.78;6365149;22;20376;-60
2021/10/13 12:51:12;;;;;;;2.30;1.75;;;;;;;14.04;55.86;96241.16;6364359;22;20043;-60
2021/10/13 12:53:38;;;;;;;2.75;1.50;;;;;;;13.96;55.94;96233.97;6365252;22;20002;-59
2021/10/13 12:56:07;;;;;;;3.13;1.73;;;;;;;14.10;55.24;96240.56;6365640;22;20024;-60
2021/10/13 12:58:32;;;;;;;1.65;1.55;;;;;;;14.03;55.49;96237.66;6366138;22;20081;-60
2021/10/13 13:00:58;;;;;;;1.73;1.63;;;;;;;13.98;55.50;96229.34;6364806;22;20022;-59
2021/10/13 13:03:24;;;;;;;1.60;1.50;;;;;;;13.95;55.53;96231.50;6364284;22;19998;-59
2021/10/13 13:05:54;;;;;;;4.30;1.80;;;;;;;13.72;55.72;96234.56;6365723;22;20338;-60
2021/10/13 13:08:20;;;;;;;3.17;1.40;;;;;;;13.81;55.25;96232.81;6365124;22;20006;-59
2021/10/13 13:10:46;;;;;;;3.90;1.60;;;;;;;13.59;56.19;96234.88;6365222;22;19998;-60
2021/10/13 13:13:12;;;;;;;1.42;1.40;;;;;;;13.74;55.77;96240.53;6363959;22;20017;-60
2021/10/13 13:15:39;;;;;;;1.73;1.63;;;;;;;13.80;55.80;96233.78;6364408;22;20017;-60
2021/10/13 13:18:05;;;;;;;3.80;2.50;;;;;;;13.99;55.24;96227.56;6365637;22;20006;-59
2021/10/13 13:20:31;;;;;;;1.80;1.70;;;;;;;14.16;55.40;96229.38;6365163;22;20400;-59
2021/10/13 13:22:56;;;;;;;8.18;2.30;;;;;;;14.37;55.88;96233.53;6364937;22;20010;-59
2021/10/13 13:25:23;;;;;;;1.45;1.35;;;;;;;14.50;54.20;96240.25;6364920;22;20003;-59
2021/10/13 13:27:48;;;;;;;1.55;1.42;;;;;;;14.46;54.38;96242.38;6365438;22;20011;-60
2021/10/13 13:30:14;;;;;;;1.35;1.25;;;;;;;14.27;55.27;96236.28;6365970;22;20038;-59
2021/10/13 13:32:39;;;;;;;1.50;1.40;;;;;;;14.09;54.94;96238.06;6364844;22;20002;-60
2021/10/13 13:35:06;;;;;;;3.65;2.47;;;;;;;13.95;55.66;96231.50;6365497;22;20060;-60
2021/10/13 13:37:31;;;;;;;1.92;1.60;;;;;;;14.01;53.53;96237.00;6365168;22;20002;-60
2021/10/13 13:39:57;;;;;;;1.50;1.38;;;;;;;13.83;53.89;96236.97;6364248;22;20002;-60
2021/10/13 13:42:22;;;;;;;1.40;1.35;;;;;;;13.70;54.89;96247.06;6365242;22;20081;-60
2021/10/13 13:44:47;;;;;;;2.42;1.58;;;;;;;13.58;55.93;96251.72;6364463;22;20002;-59
2021/10/13 13:47:13;;;;;;;2.95;1.55;;;;;;;13.50;55.70;96251.66;6365286;22;20453;-60
2021/10/13 13:49:38;;;;;;;2.00;1.50;;;;;;;13.68;54.77;96244.59;6365503;22;20069;-59
2021/10/13 13:52:04;;;;;;;1.60;1.50;;;;;;;13.54;54.32;96245.06;6364818;22;19998;-59
2021/10/13 13:54:29;;;;;;;2.28;1.52;;;;;;;13.55;54.05;96249.38;6364887;22;20013;-59
2021/10/13 13:56:55;;;;;;;2.17;1.70;;;;;;;13.34;55.46;96245.13;6363865;22;20426;-59
2021/10/13 13:59:23;;;;;;;1.45;1.30;;;;;;;13.27;55.95;96244.91;6362968;22;20010;-59
2021/10/13 14:01:48;;;;;;;2.80;1.80;;;;;;;13.25;54.78;96252.13;6363254;22;20335;-60
2021/10/13 14:04:13;;;;;;;1.70;1.60;;;;;;;13.16;55.19;96253.84;6365059;22;20105;-60
2021/10/13 14:06:39;;;;;;;1.50;1.42;;;;;;;13.11;55.39;96249.97;6363007;22;20319;-59
2021/10/13 14:09:04;;;;;;;1.50;1.40;;;;;;;13.11;55.65;96252.59;6363082;22;20016;-60
2021/10/13 14:11:30;;;;;;;1.67;1.58;;;;;;;13.03;56.18;96253.31;6364873;22;20452;-60
2021/10/13 14:13:55;;;;;;;2.42;1.73;;;;;;;12.95;56.48;96263.78;6364532;22;20002;-59
2021/10/13 14:16:20;;;;;;;2.65;1.60;;;;;;;12.88;56.00;96261.69;6365297;22;20442;-59
2021/10/13 14:18:46;;;;;;;1.58;1.48;;;;;;;12.89;56.50;96262.53;6362585;22;20357;-61
2021/10/13 14:21:11;;;;;;;2.47;1.60;;;;;;;12.99;56.11;96258.06;6364081;22;20064;-62
2021/10/13 14:23:37;;;;;;;2.45;1.50;;;;;;;12.72;55.64;96259.63;6362674;22;19994;-59
2021/10/13 14:26:03;;;;;;;1.65;1.55;;;;;;;12.81;55.49;96279.09;6363607;22;20382;-59
2021/10/13 14:28:28;;;;;;;1.65;1.35;;;;;;;13.03;55.37;96274.47;6363372;22;19999;-59
2021/10/13 14:30:54;;;;;;;2.75;1.38;;;;;;;12.84;55.81;96262.97;6363167;22;20002;-59
2021/10/13 14:33:19;;;;;;;2.55;1.50;;;;;;;12.86;54.74;96262.81;6364370;22;20216;-59
2021/10/13 14:35:45;;;;;;;3.00;2.50;;;;;;;13.15;54.23;96285.69;6364854;22;20006;-59
2021/10/13 14:38:10;;;;;;;3.00;1.70;;;;;;;13.10;53.68;96294.06;6364408;22;20528;-59
2021/10/13 14:40:37;;;;;;;2.85;1.45;;;;;;;12.78;53.84;96275.91;6363303;22;20006;-59
2021/10/13 14:43:04;;;;;;;1.77;1.67;;;;;;;12.81;53.98;96265.03;6363540;22;20109;-59
2021/10/13 14:45:29;;;;;;;3.58;1.60;;;;;;;12.61;54.97;96276.47;6363631;22;20021;-59
2021/10/13 14:47:55;;;;;;;1.85;1.42;;;;;;;12.60;55.49;96279.28;6363401;22;20498;-59
2021/10/13 14:50:20;;;;;;;1.80;1.70;;;;;;;12.52;56.15;96282.59;6363684;22;20051;-59
2021/10/13 14:52:45;;;;;;;4.38;1.45;;;;;;;12.53;55.27;96279.00;6362752;22;20470;-59
2021/10/13 14:55:11;;;;;;;1.48;1.38;;;;;;;12.53;54.86;96286.91;6361088;22;20017;-57
2021/10/13 14:57:36;;;;;;;2.72;1.95;;;;;;;12.49;55.33;96284.69;6364126;22;19998;-59
2021/10/13 15:00:04;;;;;;;1.92;1.60;;;;;;;12.45;54.96;96286.75;6363519;22;20494;-59